createdAt,value
2018-10-07T00:01:38.541Z,14.74
2018-10-07T00:04:09.062Z,14.74
2018-10-07T00:06:39.633Z,14.64
2018-10-07T00:09:10.320Z,14.63
2018-10-07T00:11:40.841Z,14.63
2018-10-07T00:14:11.414Z,14.69
2018-10-07T00:16:41.912Z,14.73
2018-10-07T00:19:16.895Z,14.58
2018-10-07T00:21:47.370Z,14.51
2018-10-07T00:24:17.782Z,14.59
2018-10-07T00:26:48.302Z,14.55
2018-10-07T00:29:18.793Z,14.47
2018-10-07T00:31:54.871Z,14.45
2018-10-07T00:34:25.351Z,14.43
2018-10-07T00:36:55.818Z,14.41
2018-10-07T00:39:26.313Z,14.40
2018-10-07T00:41:56.848Z,14.45
2018-10-07T00:44:27.302Z,14.38
2018-10-07T00:46:57.849Z,14.32
2018-10-07T00:49:28.446Z,14.26
2018-10-07T00:51:58.926Z,14.29
2018-10-07T00:54:29.460Z,14.35
2018-10-07T00:56:59.868Z,14.29
2018-10-07T00:59:30.501Z,14.24
2018-10-07T01:02:01.054Z,14.23
2018-10-07T01:04:31.497Z,14.13
2018-10-07T01:07:02.162Z,14.09
2018-10-07T01:09:32.537Z,14.13
2018-10-07T01:12:03.002Z,14.18
2018-10-07T01:14:33.469Z,14.11
2018-10-07T01:17:03.924Z,14.08
2018-10-07T01:19:34.515Z,14.12
2018-10-07T01:22:05.068Z,14.08
2018-10-07T01:24:35.581Z,14.04
2018-10-07T01:27:06.329Z,14.08
2018-10-07T01:29:36.801Z,14.18
2018-10-07T01:32:07.425Z,14.17
2018-10-07T01:34:37.922Z,14.12
2018-10-07T01:37:08.508Z,14.25
2018-10-07T01:39:38.929Z,14.30
2018-10-07T01:42:09.546Z,14.32
2018-10-07T01:44:39.978Z,14.27
2018-10-07T01:47:14.235Z,14.23
2018-10-07T01:49:44.782Z,14.30
2018-10-07T01:52:15.345Z,14.31
2018-10-07T01:54:45.979Z,14.35
2018-10-07T01:57:16.496Z,14.32
2018-10-07T01:59:46.953Z,14.27
2018-10-07T02:02:19.017Z,14.29
2018-10-07T02:04:49.636Z,14.30
2018-10-07T02:07:20.148Z,14.28
2018-10-07T02:09:51.036Z,14.30
2018-10-07T02:12:22.205Z,14.28
2018-10-07T02:14:52.771Z,14.33
2018-10-07T02:17:23.261Z,14.34
2018-10-07T02:19:53.961Z,14.31
2018-10-07T02:22:24.473Z,14.33
2018-10-07T02:24:55.020Z,14.37
2018-10-07T02:27:27.216Z,14.30
2018-10-07T02:29:57.744Z,14.28
2018-10-07T02:32:28.210Z,14.29
2018-10-07T02:34:58.739Z,14.28
2018-10-07T02:37:29.231Z,14.23
2018-10-07T02:39:59.731Z,14.26
2018-10-07T02:42:30.252Z,14.34
2018-10-07T02:45:00.799Z,14.32
2018-10-07T02:47:31.479Z,14.28
2018-10-07T02:50:02.227Z,14.28
2018-10-07T02:52:37.710Z,14.35
2018-10-07T02:55:08.272Z,14.35
2018-10-07T02:57:39.064Z,14.36
2018-10-07T03:00:09.605Z,14.36
2018-10-07T03:02:40.199Z,14.37
2018-10-07T03:05:10.833Z,14.42
2018-10-07T03:07:41.616Z,14.43
2018-10-07T03:10:12.390Z,14.48
2018-10-07T03:12:43.182Z,14.45
2018-10-07T03:15:13.705Z,14.47
2018-10-07T03:17:44.571Z,14.45
2018-10-07T03:20:16.072Z,14.47
2018-10-07T03:22:49.397Z,14.45
2018-10-07T03:25:19.876Z,14.40
2018-10-07T03:27:51.585Z,14.37
2018-10-07T03:30:22.108Z,14.35
2018-10-07T03:32:52.894Z,14.32
2018-10-07T03:35:23.432Z,14.31
2018-10-07T03:37:54.808Z,14.25
2018-10-07T03:40:31.029Z,14.24
2018-10-07T03:43:01.671Z,14.24
2018-10-07T03:45:32.159Z,14.15
2018-10-07T03:48:02.918Z,14.13
2018-10-07T03:50:33.362Z,14.21
2018-10-07T03:53:03.970Z,14.19
2018-10-07T03:55:34.536Z,14.21
2018-10-07T03:58:07.785Z,14.30
2018-10-07T04:00:38.400Z,14.33
2018-10-07T04:03:10.411Z,14.30
2018-10-07T04:05:40.922Z,14.32
2018-10-07T04:08:12.999Z,14.34
2018-10-07T04:10:43.473Z,14.40
2018-10-07T04:13:13.947Z,14.34
2018-10-07T04:15:44.397Z,14.26
2018-10-07T04:18:14.970Z,14.20
2018-10-07T04:20:45.638Z,14.26
2018-10-07T04:23:16.059Z,14.27
2018-10-07T04:25:46.468Z,14.29
2018-10-07T04:28:17.182Z,14.30
2018-10-07T04:30:47.913Z,14.35
2018-10-07T04:33:18.424Z,14.29
2018-10-07T04:35:48.940Z,14.27
2018-10-07T04:38:19.459Z,14.30
2018-10-07T04:40:49.999Z,14.31
2018-10-07T04:43:20.499Z,14.31
2018-10-07T04:45:50.949Z,14.30
2018-10-07T04:48:21.784Z,14.32
2018-10-07T04:50:52.272Z,14.28
2018-10-07T04:53:22.761Z,14.33
2018-10-07T04:55:53.217Z,14.39
2018-10-07T04:58:23.727Z,14.42
2018-10-07T05:00:54.453Z,14.34
2018-10-07T05:03:25.183Z,14.58
2018-10-07T05:05:55.921Z,14.60
2018-10-07T05:08:26.749Z,14.61
2018-10-07T05:11:02.793Z,14.57
2018-10-07T05:13:58.388Z,14.60
2018-10-07T05:21:53.466Z,14.67
2018-10-07T05:29:43.162Z,14.75
2018-10-07T05:32:13.701Z,14.72
2018-10-07T05:34:44.272Z,14.73
2018-10-07T05:37:14.792Z,14.78
2018-10-07T05:39:47.494Z,14.79
2018-10-07T05:42:18.021Z,14.90
2018-10-07T05:44:51.629Z,14.89
2018-10-07T05:47:25.139Z,14.93
2018-10-07T05:49:55.614Z,14.94
2018-10-07T05:52:26.096Z,15.03
2018-10-07T05:54:56.749Z,14.99
2018-10-07T05:57:27.466Z,15.00
2018-10-07T05:59:58.442Z,15.08
2018-10-07T06:02:29.911Z,15.09
2018-10-07T06:05:01.324Z,15.09
2018-10-07T06:07:32.200Z,15.05
2018-10-07T06:10:02.782Z,15.04
2018-10-07T06:12:34.128Z,15.07
2018-10-07T06:15:39.053Z,15.05
2018-10-07T06:18:09.935Z,15.12
2018-10-07T06:20:40.581Z,15.17
2018-10-07T06:23:11.186Z,15.14
2018-10-07T06:25:41.700Z,15.14
2018-10-07T06:28:12.586Z,15.18
2018-10-07T06:30:43.745Z,15.12
2018-10-07T06:33:14.332Z,15.10
2018-10-07T06:35:47.459Z,15.11
2018-10-07T06:38:17.930Z,14.99
2018-10-07T06:40:53.081Z,14.99
2018-10-07T06:43:24.854Z,15.04
2018-10-07T06:45:55.434Z,15.09
2018-10-07T06:48:26.100Z,15.12
2018-10-07T06:50:56.655Z,15.22
2018-10-07T06:53:28.401Z,15.34
2018-10-07T06:55:58.890Z,15.30
2018-10-07T06:58:29.397Z,15.37
2018-10-07T07:01:17.858Z,15.09
2018-10-07T07:03:48.353Z,15.36
2018-10-07T07:06:18.999Z,15.42
2018-10-07T07:08:50.446Z,15.47
2018-10-07T07:11:23.730Z,15.50
2018-10-07T07:13:56.697Z,15.58
2018-10-07T07:16:27.185Z,15.69
2018-10-07T07:19:03.036Z,15.72
2018-10-07T07:21:33.604Z,15.81
2018-10-07T07:24:05.711Z,15.81
2018-10-07T07:26:36.249Z,15.95
2018-10-07T07:29:06.837Z,15.93
2018-10-07T07:31:39.049Z,16.04
2018-10-07T07:34:12.093Z,16.01
2018-10-07T07:36:43.812Z,16.13
2018-10-07T07:39:20.403Z,16.17
2018-10-07T07:41:53.954Z,16.14
2018-10-07T07:44:24.479Z,16.10
2018-10-07T07:46:54.873Z,16.10
2018-10-07T07:49:26.532Z,16.12
2018-10-07T07:51:57.551Z,16.21
2018-10-07T07:54:28.179Z,16.20
2018-10-07T07:56:58.782Z,16.07
2018-10-07T07:59:29.270Z,15.94
2018-10-07T08:01:59.834Z,15.95
2018-10-07T08:04:30.393Z,16.08
2018-10-07T08:07:00.881Z,16.17
2018-10-07T08:09:31.533Z,16.22
2018-10-07T08:12:02.204Z,16.31
2018-10-07T08:14:32.786Z,16.32
2018-10-07T08:17:04.356Z,16.26
2018-10-07T08:19:34.772Z,16.26
2018-10-07T08:22:05.260Z,16.31
2018-10-07T08:24:35.730Z,16.31
2018-10-07T08:27:07.050Z,16.41
2018-10-07T08:29:37.592Z,16.33
2018-10-07T08:32:08.225Z,16.36
2018-10-07T08:34:38.631Z,16.31
2018-10-07T08:37:10.053Z,16.27
2018-10-07T08:39:40.554Z,16.40
2018-10-07T08:42:11.090Z,16.49
2018-10-07T08:44:41.638Z,16.50
2018-10-07T08:47:12.206Z,16.69
2018-10-07T08:49:42.840Z,16.79
2018-10-07T08:52:13.425Z,16.84
2018-10-07T08:54:45.629Z,17.01
2018-10-07T08:57:16.138Z,17.55
2018-10-07T08:59:46.681Z,18.01
2018-10-07T09:02:18.141Z,18.07
2018-10-07T09:04:50.322Z,17.93
2018-10-07T09:07:20.784Z,17.76
2018-10-07T09:09:51.171Z,17.57
2018-10-07T09:12:21.747Z,17.54
2018-10-07T09:14:52.410Z,17.45
2018-10-07T09:17:22.792Z,17.33
2018-10-07T09:19:54.121Z,17.28
2018-10-07T09:27:25.738Z,17.01
2018-10-07T09:29:56.420Z,16.79
2018-10-07T09:32:27.061Z,16.70
2018-10-07T09:34:57.458Z,16.81
2018-10-07T09:37:27.898Z,16.81
2018-10-07T09:39:58.398Z,16.72
2018-10-07T09:42:28.854Z,16.75
2018-10-07T09:45:00.021Z,16.79
2018-10-07T09:47:30.643Z,16.83
2018-10-07T09:50:01.256Z,17.06
2018-10-07T09:52:32.325Z,17.14
2018-10-07T09:55:02.826Z,17.20
2018-10-07T09:57:33.132Z,17.18
2018-10-07T10:00:03.557Z,17.27
2018-10-07T10:02:34.170Z,17.31
2018-10-07T10:05:05.105Z,17.98
2018-10-07T10:07:35.584Z,18.47
2018-10-07T10:10:06.090Z,18.21
2018-10-07T10:12:36.504Z,18.17
2018-10-07T10:15:07.525Z,17.97
2018-10-07T10:17:45.295Z,17.67
2018-10-07T10:20:17.248Z,17.54
2018-10-07T10:22:57.658Z,17.56
2018-10-07T10:25:40.823Z,17.31
2018-10-07T10:28:24.442Z,17.36
2018-10-07T10:31:31.464Z,17.35
2018-10-07T10:34:07.111Z,17.09
2018-10-07T10:36:42.561Z,16.95
2018-10-07T10:39:23.511Z,16.88
2018-10-07T10:42:00.781Z,16.94
2018-10-07T10:44:41.020Z,16.96
2018-10-07T10:47:17.538Z,16.91
2018-10-07T10:52:06.785Z,16.85
2018-10-07T10:54:47.130Z,16.97
2018-10-07T10:57:32.664Z,16.99
2018-10-07T11:00:06.554Z,17.36
2018-10-07T11:02:44.645Z,17.91
2018-10-07T11:05:28.702Z,18.08
2018-10-07T11:08:21.862Z,17.90
2018-10-07T11:11:02.810Z,17.76
2018-10-07T11:13:51.471Z,17.77
2018-10-07T11:16:25.517Z,17.70
2018-10-07T11:19:00.849Z,17.57
2018-10-07T11:21:41.956Z,17.60
2018-10-07T11:24:18.640Z,17.54
2018-10-07T11:27:44.964Z,17.51
2018-10-07T11:30:27.233Z,17.24
2018-10-07T11:35:11.037Z,16.99
2018-10-07T11:37:48.678Z,17.02
2018-10-07T11:41:28.674Z,16.98
2018-10-07T11:44:04.525Z,16.94
2018-10-07T11:46:57.727Z,17.07
2018-10-07T11:49:35.548Z,17.00
2018-10-07T11:53:16.314Z,17.05
2018-10-07T11:55:46.772Z,16.88
2018-10-07T11:58:17.243Z,16.79
2018-10-07T12:00:47.657Z,16.90
2018-10-07T12:03:18.083Z,17.10
2018-10-07T12:05:48.456Z,17.13
2018-10-07T12:08:19.043Z,17.23
2018-10-07T12:10:49.459Z,17.16
2018-10-07T12:13:20.072Z,17.17
2018-10-07T12:15:50.438Z,17.21
2018-10-07T12:18:20.941Z,17.29
2018-10-07T12:20:52.491Z,17.32
2018-10-07T12:23:23.663Z,17.20
2018-10-07T12:25:54.123Z,17.08
2018-10-07T12:28:24.662Z,16.96
2018-10-07T12:30:55.075Z,16.98
2018-10-07T12:33:25.743Z,16.81
2018-10-07T12:35:56.126Z,16.69
2018-10-07T12:38:26.678Z,16.69
2018-10-07T12:40:58.058Z,16.61
2018-10-07T12:43:28.518Z,16.75
2018-10-07T12:45:59.037Z,16.67
2018-10-07T12:48:29.541Z,16.73
2018-10-07T12:50:59.997Z,16.54
2018-10-07T12:53:30.667Z,16.57
2018-10-07T12:56:01.086Z,16.55
2018-10-07T12:58:31.421Z,16.68
2018-10-07T13:01:01.882Z,16.65
2018-10-07T13:03:32.310Z,16.70
2018-10-07T13:06:03.491Z,16.76
2018-10-07T13:08:33.881Z,16.78
2018-10-07T13:11:04.412Z,16.78
2018-10-07T13:13:34.845Z,16.83
2018-10-07T13:16:05.314Z,16.88
2018-10-07T13:18:35.734Z,16.88
2018-10-07T13:21:06.204Z,16.91
2018-10-07T13:23:36.819Z,16.90
2018-10-07T13:26:07.385Z,16.86
2018-10-07T13:28:38.106Z,16.90
2018-10-07T13:31:09.114Z,16.84
2018-10-07T13:33:39.760Z,16.73
2018-10-07T13:36:10.130Z,16.73
2018-10-07T13:38:40.577Z,16.58
2018-10-07T13:41:11.185Z,16.50
2018-10-07T13:43:41.735Z,16.54
2018-10-07T13:46:12.193Z,16.30
2018-10-07T13:48:42.698Z,16.24
2018-10-07T13:51:13.189Z,16.26
2018-10-07T13:53:44.030Z,16.23
2018-10-07T13:56:14.590Z,16.32
2018-10-07T13:58:45.078Z,16.31
2018-10-07T14:01:15.521Z,16.33
2018-10-07T14:03:46.003Z,16.43
2018-10-07T14:06:16.452Z,16.34
2018-10-07T14:08:47.005Z,16.29
2018-10-07T14:11:17.436Z,16.27
2018-10-07T14:13:48.185Z,16.24
2018-10-07T14:16:18.618Z,16.15
2018-10-07T14:18:49.098Z,16.12
2018-10-07T14:21:19.569Z,16.18
2018-10-07T14:23:49.970Z,16.17
2018-10-07T14:26:20.430Z,16.16
2018-10-07T14:28:50.856Z,16.17
2018-10-07T14:31:21.333Z,16.14
2018-10-07T14:33:53.133Z,16.10
2018-10-07T14:36:23.642Z,16.13
2018-10-07T14:38:54.091Z,16.20
2018-10-07T14:41:24.614Z,16.25
2018-10-07T14:43:55.020Z,16.16
2018-10-07T14:46:25.515Z,16.23
2018-10-07T14:48:56.011Z,16.11
2018-10-07T14:51:26.448Z,16.04
2018-10-07T14:53:57.237Z,16.02
2018-10-07T14:56:27.739Z,16.01
2018-10-07T14:58:58.179Z,16.07
2018-10-07T15:01:28.789Z,16.05
2018-10-07T15:03:59.248Z,15.97
2018-10-07T15:06:29.734Z,15.97
2018-10-07T15:09:00.144Z,15.82
2018-10-07T15:11:30.521Z,15.73
2018-10-07T15:14:01.123Z,15.78
2018-10-07T15:16:31.565Z,15.74
2018-10-07T15:19:02.025Z,15.79
2018-10-07T15:21:32.390Z,15.84
2018-10-07T15:24:02.872Z,15.85
2018-10-07T15:26:33.312Z,15.86
2018-10-07T15:29:04.656Z,15.93
2018-10-07T15:31:35.162Z,16.02
2018-10-07T15:34:05.591Z,15.98
2018-10-07T15:36:36.013Z,15.97
2018-10-07T15:39:08.091Z,15.95
2018-10-07T15:41:38.514Z,15.95
2018-10-07T15:44:08.974Z,15.86
2018-10-07T15:46:39.385Z,15.84
2018-10-07T15:49:09.784Z,15.73
2018-10-07T15:51:40.157Z,15.70
2018-10-07T15:54:11.114Z,15.68
2018-10-07T15:56:41.501Z,15.74
2018-10-07T15:59:11.871Z,15.72
2018-10-07T16:01:42.280Z,15.73
2018-10-07T16:04:12.676Z,15.57
2018-10-07T16:06:43.161Z,15.52
2018-10-07T16:09:13.602Z,15.57
2018-10-07T16:11:44.019Z,15.64
2018-10-07T16:14:15.301Z,15.71
2018-10-07T16:16:45.634Z,15.80
2018-10-07T16:19:16.127Z,15.78
2018-10-07T16:21:46.572Z,15.79
2018-10-07T16:24:17.023Z,15.80
2018-10-07T16:26:47.391Z,15.78
2018-10-07T16:29:17.819Z,15.77
2018-10-07T16:31:48.261Z,15.81
2018-10-07T16:34:19.749Z,15.82
2018-10-07T16:36:50.269Z,15.82
2018-10-07T16:39:20.664Z,15.79
2018-10-07T16:41:50.983Z,15.69
2018-10-07T16:44:21.472Z,15.66
2018-10-07T16:48:16.061Z,15.69
2018-10-07T16:50:46.542Z,15.69
2018-10-07T16:53:16.929Z,15.63
2018-10-07T16:55:47.643Z,15.64
2018-10-07T16:58:17.989Z,15.56
2018-10-07T17:00:48.351Z,15.58
2018-10-07T17:03:18.818Z,15.60
2018-10-07T17:05:49.265Z,15.57
2018-10-07T17:08:19.627Z,15.58
2018-10-07T17:10:50.202Z,15.59
2018-10-07T17:13:20.839Z,15.55
2018-10-07T17:15:51.577Z,15.53
2018-10-07T17:18:21.952Z,15.58
2018-10-07T17:20:52.434Z,15.54
2018-10-07T17:23:22.753Z,15.47
2018-10-07T17:25:53.169Z,15.43
2018-10-07T17:28:23.618Z,15.43
2018-10-07T17:30:54.049Z,15.40
2018-10-07T17:33:24.501Z,15.47
2018-10-07T17:35:55.126Z,15.39
2018-10-07T17:38:25.552Z,15.40
2018-10-07T17:40:56.070Z,15.35
2018-10-07T17:43:26.488Z,15.44
2018-10-07T17:45:56.916Z,15.37
2018-10-07T17:48:27.355Z,15.44
2018-10-07T17:50:57.712Z,15.36
2018-10-07T17:53:28.178Z,15.36
2018-10-07T17:55:58.772Z,15.39
2018-10-07T17:58:29.115Z,15.48
2018-10-07T18:00:59.593Z,15.40
2018-10-07T18:03:30.038Z,15.44
2018-10-07T18:06:00.470Z,15.44
2018-10-07T18:08:30.818Z,15.43
2018-10-07T18:11:01.193Z,15.39
2018-10-07T18:13:31.544Z,15.34
2018-10-07T18:16:02.074Z,15.39
2018-10-07T18:18:32.568Z,15.38
2018-10-07T18:21:03.083Z,15.45
2018-10-07T18:23:33.540Z,15.42
2018-10-07T18:26:04.016Z,15.51
2018-10-07T18:28:34.532Z,15.49
2018-10-07T18:31:04.981Z,15.46
2018-10-07T18:33:35.489Z,15.43
2018-10-07T18:36:06.054Z,15.44
2018-10-07T18:38:36.460Z,15.47
2018-10-07T18:41:06.996Z,15.48
2018-10-07T18:43:37.521Z,15.50
2018-10-07T18:46:07.918Z,15.52
2018-10-07T18:48:38.303Z,15.50
2018-10-07T18:51:08.756Z,15.48
2018-10-07T18:53:39.262Z,15.45
2018-10-07T18:56:10.865Z,15.45
2018-10-07T18:58:44.189Z,15.51
2018-10-07T19:01:14.609Z,15.50
2018-10-07T19:03:45.117Z,15.50
2018-10-07T19:06:15.612Z,15.46
2018-10-07T19:08:46.023Z,15.45
2018-10-07T19:11:16.401Z,15.44
2018-10-07T19:13:46.761Z,15.46
2018-10-07T19:16:17.212Z,15.39
2018-10-07T19:18:47.559Z,15.40
2018-10-07T19:21:18.133Z,15.08
2018-10-07T19:23:48.425Z,15.31
2018-10-07T19:26:18.840Z,15.31
2018-10-07T19:28:49.205Z,15.28
2018-10-07T19:31:19.636Z,15.25
2018-10-07T19:33:50.022Z,15.29
2018-10-07T19:36:20.534Z,15.31
2018-10-07T19:38:50.945Z,15.30
2018-10-07T19:41:21.457Z,15.24
2018-10-07T19:43:51.898Z,15.21
2018-10-07T19:46:22.613Z,15.23
2018-10-07T19:48:53.077Z,15.23
2018-10-07T19:51:23.566Z,15.18
2018-10-07T19:53:54.142Z,15.17
2018-10-07T19:56:24.661Z,15.15
2018-10-07T19:58:55.094Z,15.13
2018-10-07T20:01:25.477Z,15.13
2018-10-07T20:03:55.867Z,15.14
2018-10-07T20:06:26.298Z,15.18
2018-10-07T20:08:56.687Z,15.20
2018-10-07T20:11:27.085Z,15.22
2018-10-07T20:13:57.518Z,15.22
2018-10-07T20:16:28.041Z,15.24
2018-10-07T20:18:58.513Z,15.23
2018-10-07T20:21:28.924Z,15.24
2018-10-07T20:23:59.486Z,15.23
2018-10-07T20:26:30.032Z,15.23
2018-10-07T20:29:00.457Z,15.25
2018-10-07T20:31:30.898Z,15.24
2018-10-07T20:34:01.510Z,15.21
2018-10-07T20:36:33.311Z,15.15
2018-10-07T20:39:04.158Z,15.13
2018-10-07T20:41:34.619Z,15.08
2018-10-07T20:44:05.236Z,15.13
2018-10-07T20:46:35.681Z,15.08
2018-10-07T20:49:06.238Z,15.11
2018-10-07T20:51:36.745Z,15.12
2018-10-07T20:54:07.314Z,15.12
2018-10-07T20:56:37.913Z,15.12
2018-10-07T20:59:08.366Z,15.15
2018-10-07T21:01:38.806Z,15.08
2018-10-07T21:04:09.393Z,15.03
2018-10-07T21:06:39.877Z,15.05
2018-10-07T21:09:12.364Z,15.03
2018-10-07T21:11:42.801Z,15.06
2018-10-07T21:14:13.243Z,15.08
2018-10-07T21:21:46.018Z,15.02
2018-10-07T21:24:16.608Z,14.96
2018-10-07T21:26:47.074Z,14.96
2018-10-07T21:29:17.522Z,14.95
2018-10-07T21:31:47.927Z,14.98
2018-10-07T21:34:18.398Z,15.01
2018-10-07T21:36:48.858Z,15.04
2018-10-07T21:39:19.440Z,15.03
2018-10-07T21:41:49.828Z,15.04
2018-10-07T21:44:20.237Z,15.03
2018-10-07T21:46:50.851Z,15.04
2018-10-07T21:49:21.396Z,15.03
2018-10-07T21:51:51.921Z,15.05
2018-10-07T21:54:22.350Z,15.04
2018-10-07T21:56:52.777Z,15.04
2018-10-07T21:59:23.409Z,15.05
2018-10-07T22:01:53.954Z,15.03
2018-10-07T22:04:24.502Z,15.05
2018-10-07T22:06:55.001Z,15.02
2018-10-07T22:09:25.466Z,15.04
2018-10-07T22:11:55.934Z,15.05
2018-10-07T22:14:26.396Z,15.01
2018-10-07T22:16:56.838Z,14.96
2018-10-07T22:19:27.259Z,14.95
2018-10-07T22:21:57.728Z,14.94
2018-10-07T22:24:28.209Z,14.92
2018-10-07T22:26:58.713Z,14.91
2018-10-07T22:29:29.185Z,14.89
2018-10-07T22:31:59.554Z,14.87
2018-10-07T22:34:30.116Z,14.82
2018-10-07T22:37:00.571Z,14.76
2018-10-07T22:39:31.133Z,14.74
2018-10-07T22:42:01.702Z,14.70
2018-10-07T22:44:32.176Z,14.66
2018-10-07T22:47:02.768Z,14.58
2018-10-07T22:49:33.181Z,14.51
2018-10-07T22:52:03.661Z,14.48
2018-10-07T22:54:34.092Z,14.36
2018-10-07T22:57:04.590Z,14.31
2018-10-07T22:59:35.132Z,14.31
2018-10-07T23:02:05.558Z,14.28
2018-10-07T23:04:35.961Z,14.20
2018-10-07T23:07:06.327Z,14.04
2018-10-07T23:09:36.861Z,13.95
2018-10-07T23:12:07.390Z,13.98
2018-10-07T23:14:37.813Z,13.97
2018-10-07T23:17:08.194Z,13.97
2018-10-07T23:19:38.700Z,13.91
2018-10-07T23:22:09.078Z,13.87
2018-10-07T23:24:39.671Z,13.77
2018-10-07T23:27:10.185Z,13.72
2018-10-07T23:29:40.651Z,13.63
2018-10-07T23:32:11.146Z,13.55
2018-10-07T23:34:41.569Z,13.53
2018-10-07T23:37:12.004Z,13.54
2018-10-07T23:39:42.698Z,13.50
2018-10-07T23:42:13.248Z,13.45
2018-10-07T23:44:43.765Z,13.40
2018-10-07T23:47:14.177Z,13.30
2018-10-07T23:49:44.635Z,13.20
2018-10-07T23:52:15.170Z,13.18
2018-10-07T23:54:45.567Z,13.14
2018-10-07T23:57:16.127Z,13.16
2018-10-07T23:59:46.858Z,13.14
